createdAt,value
2018-11-29T00:00:28.222Z,51.65
2018-11-29T00:02:56.478Z,48.17
2018-11-29T00:05:24.569Z,48.20
2018-11-29T00:07:53.844Z,45.40
2018-11-29T00:10:22.076Z,47.65
2018-11-29T00:12:50.200Z,46.95
2018-11-29T00:15:18.349Z,50.55
2018-11-29T00:17:46.495Z,48.33
2018-11-29T00:20:17.346Z,47.43
2018-11-29T00:22:46.246Z,48.17
2018-11-29T00:25:15.898Z,46.10
2018-11-29T00:27:44.388Z,45.12
2018-11-29T00:30:16.215Z,50.85
2018-11-29T00:32:44.410Z,46.30
2018-11-29T00:35:14.325Z,45.20
2018-11-29T00:37:42.472Z,45.08
2018-11-29T00:40:15.269Z,46.08
2018-11-29T00:42:43.410Z,43.47
2018-11-29T00:45:12.547Z,48.15
2018-11-29T00:47:40.727Z,47.40
2018-11-29T00:50:10.733Z,42.25
2018-11-29T00:52:39.562Z,48.33
2018-11-29T00:55:11.802Z,46.67
2018-11-29T00:57:40.135Z,50.08
2018-11-29T01:00:11.362Z,48.55
2018-11-29T01:02:39.433Z,46.40
2018-11-29T01:05:07.654Z,49.90
2018-11-29T01:07:35.839Z,49.83
2018-11-29T01:10:08.433Z,46.68
2018-11-29T01:12:36.615Z,48.75
2018-11-29T01:15:06.338Z,52.80
2018-11-29T01:17:34.473Z,46.88
2018-11-29T01:20:02.682Z,46.60
2018-11-29T01:22:30.768Z,47.20
2018-11-29T01:24:58.880Z,49.20
2018-11-29T01:27:26.967Z,50.78
2018-11-29T01:29:55.057Z,50.90
2018-11-29T01:32:23.281Z,50.20
2018-11-29T01:34:51.371Z,45.65
2018-11-29T01:37:19.440Z,45.33
2018-11-29T01:39:47.554Z,46.97
2018-11-29T01:42:15.692Z,46.88
2018-11-29T01:44:43.834Z,47.85
2018-11-29T01:47:11.973Z,43.75
2018-11-29T01:49:40.054Z,44.75
2018-11-29T01:52:08.218Z,45.45
2018-11-29T01:54:36.318Z,45.90
2018-11-29T01:57:04.475Z,49.70
2018-11-29T01:59:32.683Z,46.57
2018-11-29T02:02:00.814Z,47.35
2018-11-29T02:04:28.919Z,49.60
2018-11-29T02:06:57.012Z,50.33
2018-11-29T02:09:25.110Z,50.90
2018-11-29T02:11:53.260Z,50.92
2018-11-29T02:14:21.376Z,50.15
2018-11-29T02:16:49.579Z,48.78
2018-11-29T02:19:17.662Z,53.70
2018-11-29T02:21:45.739Z,52.90
2018-11-29T02:24:13.871Z,50.65
2018-11-29T02:26:42.075Z,52.48
2018-11-29T02:29:10.201Z,56.93
2018-11-29T02:31:38.304Z,48.73
2018-11-29T02:34:06.520Z,50.92
2018-11-29T02:36:34.680Z,55.35
2018-11-29T02:39:02.798Z,56.00
2018-11-29T02:41:31.095Z,57.10
2018-11-29T02:43:59.254Z,56.30
2018-11-29T02:46:27.411Z,55.85
2018-11-29T02:48:55.578Z,60.15
2018-11-29T02:51:23.695Z,60.67
2018-11-29T02:53:51.840Z,64.07
2018-11-29T02:56:19.978Z,56.98
2018-11-29T02:58:48.180Z,53.10
2018-11-29T03:01:16.286Z,60.03
2018-11-29T03:03:44.414Z,55.52
2018-11-29T03:06:12.565Z,56.45
2018-11-29T03:08:40.738Z,59.75
2018-11-29T03:11:08.839Z,59.48
2018-11-29T03:13:36.970Z,59.63
2018-11-29T03:16:05.155Z,56.20
2018-11-29T03:18:33.327Z,63.20
2018-11-29T03:21:01.507Z,60.48
2018-11-29T03:23:29.640Z,59.35
2018-11-29T03:25:57.744Z,55.87
2018-11-29T03:28:25.947Z,57.17
2018-11-29T03:30:54.115Z,60.50
2018-11-29T03:33:22.219Z,55.23
2018-11-29T03:35:50.307Z,56.15
2018-11-29T03:38:18.501Z,54.75
2018-11-29T03:40:46.616Z,52.10
2018-11-29T03:43:14.820Z,57.30
2018-11-29T03:45:42.937Z,56.35
2018-11-29T03:48:11.079Z,53.75
2018-11-29T03:50:39.298Z,51.65
2018-11-29T03:53:07.432Z,52.08
2018-11-29T03:55:35.584Z,51.58
2018-11-29T03:58:03.667Z,53.20
2018-11-29T04:00:31.783Z,54.42
2018-11-29T04:02:59.895Z,56.10
2018-11-29T04:05:28.052Z,57.50
2018-11-29T04:07:56.174Z,56.00
2018-11-29T04:10:24.295Z,53.68
2018-11-29T04:12:52.911Z,54.90
2018-11-29T04:15:21.023Z,55.30
2018-11-29T04:17:49.215Z,56.42
2018-11-29T04:20:17.711Z,59.03
2018-11-29T04:22:45.971Z,55.00
2018-11-29T04:25:14.987Z,58.83
2018-11-29T04:27:43.074Z,60.78
2018-11-29T04:30:14.051Z,56.73
2018-11-29T04:32:42.404Z,54.65
2018-11-29T04:35:10.950Z,57.08
2018-11-29T04:37:39.250Z,56.85
2018-11-29T04:40:11.149Z,52.48
2018-11-29T04:42:39.299Z,50.95
2018-11-29T04:45:09.361Z,57.00
2018-11-29T04:47:37.574Z,59.48
2018-11-29T04:50:05.923Z,57.75
2018-11-29T04:52:34.390Z,59.85
2018-11-29T04:55:02.523Z,61.88
2018-11-29T04:57:30.624Z,59.33
2018-11-29T04:59:59.816Z,60.48
2018-11-29T05:02:28.037Z,58.80
2018-11-29T05:04:56.148Z,58.17
2018-11-29T05:07:24.285Z,54.38
2018-11-29T05:09:52.633Z,58.42
2018-11-29T05:12:20.782Z,57.27
2018-11-29T05:14:48.982Z,60.00
2018-11-29T05:17:17.256Z,61.60
2018-11-29T05:19:45.447Z,56.10
2018-11-29T05:22:13.627Z,57.48
2018-11-29T05:24:41.779Z,60.88
2018-11-29T05:27:09.921Z,59.50
2018-11-29T05:29:38.056Z,59.77
2018-11-29T05:32:06.881Z,58.08
2018-11-29T05:34:34.375Z,60.05
2018-11-29T05:37:02.485Z,63.20
2018-11-29T05:39:30.705Z,65.25
2018-11-29T05:41:59.000Z,69.72
2018-11-29T05:44:27.266Z,65.10
2018-11-29T05:46:55.391Z,64.45
2018-11-29T05:49:23.535Z,69.03
2018-11-29T05:51:51.723Z,68.07
2018-11-29T05:54:19.965Z,68.00
2018-11-29T05:56:48.188Z,70.37
2018-11-29T05:59:16.324Z,66.80
2018-11-29T06:01:44.993Z,65.03
2018-11-29T06:04:13.181Z,68.72
2018-11-29T06:06:41.561Z,66.97
2018-11-29T06:09:10.188Z,66.12
2018-11-29T06:11:38.938Z,61.10
2018-11-29T06:14:07.817Z,66.20
2018-11-29T06:16:37.046Z,67.87
2018-11-29T06:19:06.535Z,66.12
2018-11-29T06:21:34.763Z,66.13
2018-11-29T06:24:02.980Z,63.45
2018-11-29T06:26:31.115Z,65.92
2018-11-29T06:28:59.208Z,63.40
2018-11-29T06:31:27.386Z,61.28
2018-11-29T06:33:55.528Z,62.15
2018-11-29T06:36:23.658Z,62.73
2018-11-29T06:38:51.783Z,64.27
2018-11-29T06:41:19.883Z,75.80
2018-11-29T06:43:48.000Z,71.82
2018-11-29T06:46:16.196Z,70.30
2018-11-29T06:48:44.304Z,71.90
2018-11-29T06:51:12.519Z,69.55
2018-11-29T06:53:46.155Z,70.00
2018-11-29T06:56:14.243Z,65.25
2018-11-29T06:58:42.384Z,71.43
2018-11-29T07:03:50.872Z,72.53
2018-11-29T07:06:18.987Z,65.03
2018-11-29T07:08:47.174Z,68.45
2018-11-29T07:11:15.410Z,66.25
2018-11-29T07:13:43.518Z,67.32
2018-11-29T07:16:11.616Z,66.85
2018-11-29T07:18:39.756Z,69.10
2018-11-29T07:21:19.534Z,67.70
2018-11-29T07:23:47.708Z,65.87
2018-11-29T07:26:15.849Z,67.53
2018-11-29T07:28:43.963Z,68.72
2018-11-29T07:31:12.066Z,69.53
2018-11-29T07:33:40.155Z,64.30
2018-11-29T07:36:08.278Z,66.07
2018-11-29T07:38:36.475Z,63.90
2018-11-29T07:41:04.671Z,61.68
2018-11-29T07:43:32.926Z,62.90
2018-11-29T07:46:01.009Z,60.08
2018-11-29T07:48:29.172Z,67.97
2018-11-29T07:50:57.376Z,56.48
2018-11-29T07:53:25.480Z,61.70
2018-11-29T07:55:53.711Z,57.80
2018-11-29T07:58:21.844Z,61.40
2018-11-29T08:00:49.955Z,59.63
2018-11-29T08:03:18.051Z,60.60
2018-11-29T08:05:46.400Z,60.12
2018-11-29T08:08:14.541Z,58.50
2018-11-29T08:10:42.662Z,57.47
2018-11-29T08:13:10.757Z,57.40
2018-11-29T08:15:39.035Z,57.73
2018-11-29T08:18:07.296Z,56.92
2018-11-29T08:20:35.392Z,57.23
2018-11-29T08:23:03.491Z,58.73
2018-11-29T08:25:31.748Z,56.13
2018-11-29T08:27:59.887Z,58.28
2018-11-29T08:30:28.072Z,55.20
2018-11-29T08:32:56.227Z,57.57
2018-11-29T08:35:24.443Z,54.10
2018-11-29T08:37:52.598Z,55.83
2018-11-29T08:40:21.131Z,56.47
2018-11-29T08:42:49.231Z,57.53
2018-11-29T08:45:17.340Z,56.97
2018-11-29T08:47:45.582Z,54.63
2018-11-29T08:50:14.456Z,54.60
2018-11-29T08:52:43.879Z,55.70
2018-11-29T08:55:13.963Z,53.78
2018-11-29T08:57:42.087Z,51.77
2018-11-29T09:00:14.535Z,52.95
2018-11-29T09:02:42.860Z,52.93
2018-11-29T09:05:11.850Z,56.08
2018-11-29T09:07:40.037Z,50.27
2018-11-29T09:10:09.684Z,53.08
2018-11-29T09:12:37.863Z,52.27
2018-11-29T09:15:07.868Z,51.08
2018-11-29T09:17:36.013Z,52.05
2018-11-29T09:20:05.159Z,51.00
2018-11-29T09:22:33.336Z,50.73
2018-11-29T09:25:01.466Z,47.08
2018-11-29T09:27:29.611Z,46.58
2018-11-29T09:29:57.735Z,49.90
2018-11-29T09:32:25.875Z,50.50
2018-11-29T09:34:53.999Z,49.18
2018-11-29T09:37:22.175Z,50.17
2018-11-29T09:39:50.387Z,48.38
2018-11-29T09:42:18.508Z,47.35
2018-11-29T09:44:46.748Z,50.88
2018-11-29T09:47:14.876Z,47.62
2018-11-29T09:49:43.068Z,46.70
2018-11-29T09:52:11.271Z,44.75
2018-11-29T09:54:39.480Z,44.93
2018-11-29T09:57:07.601Z,45.00
2018-11-29T09:59:35.780Z,44.57
2018-11-29T10:02:03.975Z,46.83
2018-11-29T10:04:32.283Z,43.87
2018-11-29T10:07:00.418Z,44.00
2018-11-29T10:09:28.847Z,47.67
2018-11-29T10:11:56.963Z,44.08
2018-11-29T10:14:25.129Z,44.47
2018-11-29T10:16:53.319Z,42.20
2018-11-29T10:19:21.431Z,44.73
2018-11-29T10:21:49.712Z,44.15
2018-11-29T10:24:17.894Z,42.07
2018-11-29T10:26:46.027Z,42.33
2018-11-29T10:29:14.176Z,41.55
2018-11-29T10:31:42.360Z,40.75
2018-11-29T10:34:10.564Z,42.37
2018-11-29T10:36:38.799Z,44.63
2018-11-29T10:39:07.963Z,41.02
2018-11-29T10:41:36.099Z,42.88
2018-11-29T10:44:04.535Z,41.93
2018-11-29T10:46:32.912Z,42.23
2018-11-29T10:49:01.047Z,42.20
2018-11-29T10:51:29.239Z,43.70
2018-11-29T10:53:57.351Z,43.78
2018-11-29T10:56:25.495Z,41.33
2018-11-29T10:58:53.730Z,41.20
2018-11-29T11:01:27.351Z,41.75
2018-11-29T11:03:55.458Z,42.43
2018-11-29T11:06:23.564Z,40.95
2018-11-29T11:08:51.675Z,40.23
2018-11-29T11:11:20.007Z,40.30
2018-11-29T11:13:48.141Z,41.18
2018-11-29T11:16:16.366Z,40.33
2018-11-29T11:18:44.544Z,39.65
2018-11-29T11:21:12.668Z,40.90
2018-11-29T11:23:40.807Z,39.95
2018-11-29T11:26:09.014Z,40.40
2018-11-29T11:28:37.111Z,40.17
2018-11-29T11:31:05.429Z,40.80
2018-11-29T11:33:33.579Z,39.85
2018-11-29T11:36:01.787Z,39.55
2018-11-29T11:38:29.967Z,39.00
2018-11-29T11:40:58.076Z,40.08
2018-11-29T11:43:26.359Z,40.38
2018-11-29T11:45:54.553Z,39.63
2018-11-29T11:48:22.663Z,39.00
2018-11-29T11:50:50.760Z,38.70
2018-11-29T11:53:19.001Z,39.08
2018-11-29T11:55:53.370Z,39.00
2018-11-29T11:58:15.337Z,38.25
2018-11-29T12:00:43.402Z,42.60
2018-11-29T12:03:13.848Z,42.20
2018-11-29T12:05:42.031Z,41.42
2018-11-29T12:08:10.204Z,40.80
2018-11-29T12:10:39.370Z,40.65
2018-11-29T12:13:07.947Z,40.75
2018-11-29T12:15:37.017Z,40.27
2018-11-29T12:18:06.209Z,40.92
2018-11-29T12:20:34.344Z,40.23
2018-11-29T12:23:02.516Z,40.70
2018-11-29T12:25:30.654Z,41.68
2018-11-29T12:27:58.814Z,41.92
2018-11-29T12:30:29.199Z,40.60
2018-11-29T12:32:58.542Z,38.23
2018-11-29T12:35:26.775Z,40.80
2018-11-29T12:37:54.907Z,40.88
2018-11-29T12:40:23.087Z,39.65
2018-11-29T12:42:51.207Z,40.05
2018-11-29T12:45:19.451Z,40.90
2018-11-29T12:47:47.572Z,40.28
2018-11-29T12:50:16.695Z,37.63
2018-11-29T12:52:45.105Z,38.58
2018-11-29T12:55:14.242Z,39.30
2018-11-29T12:57:43.527Z,38.75
2018-11-29T13:00:15.088Z,40.83
2018-11-29T13:02:47.186Z,38.92
2018-11-29T13:05:15.375Z,39.55
2018-11-29T13:07:43.580Z,40.70
2018-11-29T13:10:14.872Z,43.10
2018-11-29T13:12:43.064Z,44.20
2018-11-29T13:15:15.225Z,43.08
2018-11-29T13:17:43.346Z,40.95
2018-11-29T13:20:12.649Z,39.90
2018-11-29T13:22:40.864Z,38.08
2018-11-29T13:25:11.633Z,39.95
2018-11-29T13:27:41.159Z,37.70
2018-11-29T13:30:10.686Z,38.40
2018-11-29T13:32:38.849Z,39.58
2018-11-29T13:35:09.770Z,36.90
2018-11-29T13:37:38.024Z,38.08
2018-11-29T13:40:09.921Z,36.48
2018-11-29T13:42:40.246Z,37.67
2018-11-29T13:45:09.908Z,39.42
2018-11-29T13:47:38.624Z,38.27
2018-11-29T13:50:09.389Z,40.73
2018-11-29T13:52:37.523Z,37.53
2018-11-29T13:55:06.799Z,38.50
2018-11-29T13:57:34.975Z,40.45
2018-11-29T14:00:03.181Z,40.48
2018-11-29T14:02:31.392Z,38.25
2018-11-29T14:04:59.528Z,38.53
2018-11-29T14:07:27.685Z,37.27
2018-11-29T14:09:55.803Z,37.53
2018-11-29T14:12:24.055Z,39.73
2018-11-29T14:14:52.177Z,40.80
2018-11-29T14:17:20.388Z,38.63
2018-11-29T14:19:48.515Z,39.03
2018-11-29T14:22:16.668Z,41.20
2018-11-29T14:24:44.851Z,40.35
2018-11-29T14:27:13.099Z,41.80
2018-11-29T14:29:41.291Z,42.70
2018-11-29T14:32:09.668Z,43.42
2018-11-29T14:34:37.643Z,40.92
2018-11-29T14:37:06.063Z,39.88
2018-11-29T14:39:34.175Z,42.62
2018-11-29T14:42:02.402Z,40.55
2018-11-29T14:44:30.547Z,40.33
2018-11-29T14:46:58.700Z,39.30
2018-11-29T14:49:26.823Z,38.95
2018-11-29T14:51:55.156Z,38.65
2018-11-29T14:54:23.316Z,42.83
2018-11-29T14:56:51.538Z,42.83
2018-11-29T14:59:19.687Z,41.20
2018-11-29T15:01:47.914Z,42.17
2018-11-29T15:04:16.048Z,43.00
2018-11-29T15:06:44.175Z,44.77
2018-11-29T15:09:12.333Z,45.05
2018-11-29T15:11:41.479Z,44.23
2018-11-29T15:14:09.699Z,42.90
2018-11-29T15:16:37.840Z,39.70
2018-11-29T15:19:06.008Z,43.30
2018-11-29T15:21:34.230Z,42.60
2018-11-29T15:24:02.518Z,40.50
2018-11-29T15:26:30.710Z,40.90
2018-11-29T15:28:59.416Z,43.00
2018-11-29T15:31:27.542Z,40.58
2018-11-29T15:33:55.666Z,40.17
2018-11-29T15:36:23.895Z,40.00
2018-11-29T15:38:51.986Z,38.73
2018-11-29T15:41:20.194Z,39.93
2018-11-29T15:43:48.320Z,38.75
2018-11-29T15:46:16.471Z,38.65
2018-11-29T15:48:44.578Z,38.67
2018-11-29T15:51:12.791Z,36.83
2018-11-29T15:53:40.919Z,40.12
2018-11-29T15:56:09.098Z,37.95
2018-11-29T15:58:37.214Z,38.85
2018-11-29T16:01:05.777Z,36.80
2018-11-29T16:03:33.939Z,38.28
2018-11-29T16:06:02.132Z,38.23
2018-11-29T16:08:30.250Z,38.67
2018-11-29T16:10:58.404Z,36.58
2018-11-29T16:13:26.548Z,37.67
2018-11-29T16:15:54.730Z,37.63
2018-11-29T16:18:22.880Z,39.18
2018-11-29T16:20:50.991Z,37.13
2018-11-29T16:23:19.090Z,37.40
2018-11-29T16:25:47.232Z,38.07
2018-11-29T16:28:15.955Z,38.25
2018-11-29T16:30:47.883Z,37.88
2018-11-29T16:33:17.916Z,35.37
2018-11-29T16:35:45.994Z,37.63
2018-11-29T16:38:14.143Z,35.10
2018-11-29T16:40:42.238Z,38.35
2018-11-29T16:43:10.350Z,36.42
2018-11-29T16:45:38.443Z,37.28
2018-11-29T16:48:07.054Z,42.70
2018-11-29T16:50:35.604Z,35.63
2018-11-29T16:53:03.652Z,38.45
2018-11-29T16:55:32.183Z,44.67
2018-11-29T16:58:02.979Z,40.83
2018-11-29T17:00:32.167Z,35.55
2018-11-29T17:03:06.175Z,37.10
2018-11-29T17:05:34.476Z,35.00
2018-11-29T17:08:03.074Z,36.38
2018-11-29T17:10:31.348Z,37.03
2018-11-29T17:13:01.577Z,36.48
2018-11-29T17:15:29.704Z,36.68
2018-11-29T17:17:57.811Z,35.43
2018-11-29T17:20:26.027Z,38.08
2018-11-29T17:22:54.909Z,40.60
2018-11-29T17:25:23.718Z,40.98
2018-11-29T17:27:52.137Z,38.73
2018-11-29T17:30:22.255Z,41.23
2018-11-29T17:32:51.531Z,37.80
2018-11-29T17:35:19.672Z,40.92
2018-11-29T17:37:47.878Z,38.40
2018-11-29T17:40:17.110Z,43.13
2018-11-29T17:42:45.402Z,39.65
2018-11-29T17:45:16.011Z,43.73
2018-11-29T17:47:44.714Z,42.50
2018-11-29T17:50:15.422Z,42.37
2018-11-29T17:52:43.583Z,41.92
2018-11-29T17:55:11.705Z,45.03
2018-11-29T17:57:39.855Z,40.00
2018-11-29T18:00:12.881Z,39.38
2018-11-29T18:02:41.122Z,41.00
2018-11-29T18:05:09.312Z,40.77
2018-11-29T18:07:49.856Z,41.10
2018-11-29T18:10:20.366Z,39.35
2018-11-29T18:12:51.271Z,40.83
2018-11-29T18:15:20.820Z,41.50
2018-11-29T18:17:48.970Z,41.63
2018-11-29T18:20:17.144Z,39.67
2018-11-29T18:22:45.361Z,43.35
2018-11-29T18:25:14.620Z,42.48
2018-11-29T18:27:45.597Z,41.77
2018-11-29T18:30:15.079Z,41.65
2018-11-29T18:32:43.220Z,41.50
2018-11-29T18:35:12.191Z,41.60
2018-11-29T18:37:40.298Z,42.33
2018-11-29T18:40:13.435Z,42.90
2018-11-29T18:42:41.526Z,43.92
2018-11-29T18:45:14.987Z,41.20
2018-11-29T18:47:43.988Z,42.25
2018-11-29T18:50:13.480Z,42.60
2018-11-29T18:52:41.610Z,43.70
2018-11-29T18:55:10.286Z,44.95
2018-11-29T18:57:38.390Z,41.77
2018-11-29T19:00:14.818Z,45.63
2018-11-29T19:02:43.035Z,44.47
2018-11-29T19:05:11.175Z,41.28
2018-11-29T19:07:39.359Z,44.90
2018-11-29T19:10:10.597Z,41.92
2018-11-29T19:12:39.723Z,39.63
2018-11-29T19:15:09.979Z,41.42
2018-11-29T19:17:38.481Z,40.85
2018-11-29T19:20:09.611Z,43.48
2018-11-29T19:22:37.763Z,44.27
2018-11-29T19:25:08.422Z,42.03
2018-11-29T19:27:36.554Z,43.38
2018-11-29T19:30:07.716Z,45.93
2018-11-29T19:32:35.856Z,43.63
2018-11-29T19:35:04.006Z,43.90
2018-11-29T19:37:32.087Z,43.35
2018-11-29T19:40:00.204Z,41.60
2018-11-29T19:42:28.303Z,41.23
2018-11-29T19:44:56.477Z,42.20
2018-11-29T19:47:24.706Z,43.00
2018-11-29T19:49:52.824Z,46.23
2018-11-29T19:52:20.934Z,42.65
2018-11-29T19:54:49.068Z,40.43
2018-11-29T19:57:17.277Z,41.50
2018-11-29T19:59:45.487Z,41.65
2018-11-29T20:02:13.602Z,43.35
2018-11-29T20:04:41.750Z,44.15
2018-11-29T20:07:09.954Z,41.02
2018-11-29T20:09:38.055Z,42.45
2018-11-29T20:12:06.186Z,39.67
2018-11-29T20:14:34.320Z,43.52
2018-11-29T20:17:03.510Z,43.40
2018-11-29T20:19:31.614Z,41.68
2018-11-29T20:21:59.723Z,43.42
2018-11-29T20:24:27.813Z,45.20
2018-11-29T20:26:55.969Z,55.52
2018-11-29T20:29:24.138Z,63.58
2018-11-29T20:31:52.264Z,64.27
2018-11-29T20:34:20.399Z,51.05
2018-11-29T20:36:48.574Z,36.73
2018-11-29T20:39:16.655Z,37.03
2018-11-29T20:41:44.817Z,37.90
2018-11-29T20:44:13.021Z,41.25
2018-11-29T20:46:47.539Z,40.95
2018-11-29T20:49:15.647Z,39.92
2018-11-29T20:51:43.811Z,40.63
2018-11-29T20:54:11.903Z,41.50
2018-11-29T20:56:40.098Z,36.53
2018-11-29T20:59:08.178Z,39.53
2018-11-29T21:01:36.342Z,40.40
2018-11-29T21:04:04.484Z,42.62
2018-11-29T21:06:32.663Z,39.18
2018-11-29T21:09:00.888Z,39.15
2018-11-29T21:11:29.042Z,39.67
2018-11-29T21:13:57.179Z,37.65
2018-11-29T21:16:25.270Z,39.33
2018-11-29T21:18:53.466Z,39.83
2018-11-29T21:21:21.619Z,36.77
2018-11-29T21:23:49.714Z,39.05
2018-11-29T21:26:17.874Z,38.17
2018-11-29T21:28:45.966Z,41.90
2018-11-29T21:31:14.090Z,43.30
2018-11-29T21:33:42.218Z,40.20
2018-11-29T21:36:10.439Z,42.13
2018-11-29T21:38:38.563Z,41.02
2018-11-29T21:41:06.772Z,39.20
2018-11-29T21:43:34.915Z,40.90
2018-11-29T21:46:03.015Z,42.05
2018-11-29T21:48:31.139Z,42.55
2018-11-29T21:50:59.265Z,40.27
2018-11-29T21:53:28.436Z,40.28
2018-11-29T21:55:56.548Z,38.33
2018-11-29T21:58:24.663Z,40.95
2018-11-29T22:00:52.748Z,40.92
2018-11-29T22:03:20.915Z,39.10
2018-11-29T22:05:49.058Z,38.50
2018-11-29T22:08:17.299Z,39.47
2018-11-29T22:10:45.414Z,43.95
2018-11-29T22:13:13.508Z,41.50
2018-11-29T22:15:41.707Z,38.13
2018-11-29T22:18:22.910Z,39.90
2018-11-29T22:20:53.404Z,41.18
2018-11-29T22:23:21.619Z,40.80
2018-11-29T22:25:49.908Z,40.03
2018-11-29T22:28:18.055Z,37.93
2018-11-29T22:30:46.236Z,37.40
2018-11-29T22:33:14.335Z,39.47
2018-11-29T22:35:42.506Z,40.70
2018-11-29T22:38:10.662Z,37.83
2018-11-29T22:40:38.863Z,38.70
2018-11-29T22:43:06.970Z,37.23
2018-11-29T22:45:35.396Z,39.50
2018-11-29T22:48:03.527Z,37.25
2018-11-29T22:50:31.744Z,41.68
2018-11-29T22:52:59.859Z,38.20
2018-11-29T22:55:28.029Z,38.50
2018-11-29T22:57:56.164Z,41.37
2018-11-29T23:00:24.324Z,40.83
2018-11-29T23:02:52.555Z,39.03
2018-11-29T23:05:20.939Z,39.13
2018-11-29T23:07:49.183Z,39.73
2018-11-29T23:10:17.401Z,40.25
2018-11-29T23:12:45.554Z,39.60
2018-11-29T23:15:13.715Z,39.92
2018-11-29T23:17:41.939Z,39.42
2018-11-29T23:20:11.240Z,42.08
2018-11-29T23:22:40.015Z,42.98
2018-11-29T23:25:10.547Z,42.65
2018-11-29T23:27:39.469Z,37.90
2018-11-29T23:30:14.157Z,40.85
2018-11-29T23:32:42.656Z,41.93
2018-11-29T23:35:11.174Z,41.60
2018-11-29T23:37:39.363Z,40.58
2018-11-29T23:40:10.577Z,44.10
2018-11-29T23:42:38.719Z,45.43
2018-11-29T23:45:08.457Z,44.00
2018-11-29T23:47:36.810Z,41.98
2018-11-29T23:50:07.647Z,39.75
2018-11-29T23:52:35.816Z,39.00
2018-11-29T23:55:04.243Z,39.90
2018-11-29T23:57:32.404Z,37.28
